Time;durP1;ratioP1;P1;durP2;ratioP2;P2;SDS_P1;SDS_P2;PMS_P1;PMS_P2;Temp;Humidity;BMP_temperature;BMP_pressure;BME280_temperature;BME280_humidity;BME280_pressure;Samples;Min_cycle;Max_cycle;Signal;HPM_P1;HPM_P2
2021/12/27 00:02:03;;;;;;;24.30;12.15;;;;;;;;;;5070400;28;20055;-66
2021/12/27 00:04:28;;;;;;;22.23;11.40;;;;;;;;;;5069813;28;20032;-66
2021/12/27 00:06:53;;;;;;;22.70;11.35;;;;;;;;;;5071243;28;20064;-65
2021/12/27 00:09:19;;;;;;;23.30;12.10;;;;;;;;;;5071177;28;20024;-66
2021/12/27 00:11:44;;;;;;;22.33;11.30;;;;;;;;;;5071381;28;20033;-66
2021/12/27 00:14:10;;;;;;;25.00;11.85;;;;;;;;;;5069384;28;20055;-66
2021/12/27 00:16:35;;;;;;;23.25;12.13;;;;;;;;;;5067996;28;20047;-65
2021/12/27 00:19:00;;;;;;;24.20;11.70;;;;;;;;;;5069301;28;20024;-65
2021/12/27 00:21:26;;;;;;;22.85;11.25;;;;;;;;;;5069887;28;20040;-65
2021/12/27 00:23:51;;;;;;;23.90;11.55;;;;;;;;;;5070325;28;20041;-65
2021/12/27 00:26:17;;;;;;;20.42;11.00;;;;;;;;;;5069890;28;20021;-66
2021/12/27 00:28:42;;;;;;;23.27;11.27;;;;;;;;;;5063562;28;20067;-66
2021/12/27 00:31:07;;;;;;;21.48;11.30;;;;;;;;;;5070708;28;20449;-65
2021/12/27 00:33:33;;;;;;;21.33;10.80;;;;;;;;;;5071150;28;20942;-65
2021/12/27 00:35:59;;;;;;;22.15;11.32;;;;;;;;;;5067879;28;20122;-65
2021/12/27 00:38:24;;;;;;;20.45;11.00;;;;;;;;;;5071147;28;20043;-65
2021/12/27 00:40:50;;;;;;;23.80;11.52;;;;;;;;;;5070869;28;20031;-66
2021/12/27 00:43:16;;;;;;;23.42;12.07;;;;;;;;;;5068259;28;20035;-66
2021/12/27 00:45:42;;;;;;;22.88;11.55;;;;;;;;;;5070563;28;20074;-66
2021/12/27 00:48:07;;;;;;;23.20;11.63;;;;;;;;;;5070818;28;20032;-65
2021/12/27 00:50:33;;;;;;;23.80;11.90;;;;;;;;;;5069729;28;20062;-66
2021/12/27 00:52:58;;;;;;;24.55;11.85;;;;;;;;;;5069311;28;20037;-66
2021/12/27 00:55:24;;;;;;;22.55;11.52;;;;;;;;;;5068811;28;20029;-66
2021/12/27 00:57:52;;;;;;;22.17;11.85;;;;;;;;;;5070028;28;20040;-66
2021/12/27 01:00:19;;;;;;;24.85;12.02;;;;;;;;;;5069582;28;20198;-66
2021/12/27 01:02:46;;;;;;;22.25;12.15;;;;;;;;;;5071249;28;20036;-65
2021/12/27 01:05:12;;;;;;;22.27;11.15;;;;;;;;;;5068958;28;20039;-65
2021/12/27 01:07:38;;;;;;;23.63;11.15;;;;;;;;;;5070133;28;20454;-65
2021/12/27 01:10:26;;;;;;;21.58;11.10;;;;;;;;;;5069177;28;20131;-65
2021/12/27 01:17:50;;;;;;;22.63;11.70;;;;;;;;;;5066340;28;20025;-65
2021/12/27 01:20:19;;;;;;;20.20;11.45;;;;;;;;;;5068330;28;20055;-65
2021/12/27 01:22:45;;;;;;;23.35;11.52;;;;;;;;;;5060750;28;20043;-65
2021/12/27 01:25:12;;;;;;;21.27;11.07;;;;;;;;;;5068731;28;20378;-65
2021/12/27 01:27:39;;;;;;;21.70;11.18;;;;;;;;;;5064912;28;20111;-65
2021/12/27 01:30:07;;;;;;;22.52;11.43;;;;;;;;;;5070637;28;20028;-65
2021/12/27 01:32:39;;;;;;;22.92;12.05;;;;;;;;;;5068925;28;20067;-65
2021/12/27 01:35:05;;;;;;;24.60;12.05;;;;;;;;;;5069202;28;20036;-65
2021/12/27 01:37:30;;;;;;;21.55;11.32;;;;;;;;;;5070075;28;20028;-65
2021/12/27 01:39:56;;;;;;;25.08;12.50;;;;;;;;;;5070958;28;20052;-65
2021/12/27 01:42:22;;;;;;;21.88;11.70;;;;;;;;;;5067612;28;20052;-66
2021/12/27 01:44:48;;;;;;;22.80;11.82;;;;;;;;;;5066736;28;20028;-65
2021/12/27 01:47:13;;;;;;;21.77;12.10;;;;;;;;;;5066893;28;20062;-65
2021/12/27 01:49:38;;;;;;;25.60;12.48;;;;;;;;;;5047106;28;20033;-65
2021/12/27 01:52:05;;;;;;;21.42;11.50;;;;;;;;;;5056551;28;20060;-65
2021/12/27 01:54:30;;;;;;;22.48;12.13;;;;;;;;;;5069633;28;20082;-65
2021/12/27 01:56:56;;;;;;;21.42;11.90;;;;;;;;;;5068216;28;20390;-65
2021/12/27 01:59:21;;;;;;;23.13;12.27;;;;;;;;;;5072950;28;20032;-66
2021/12/27 02:01:47;;;;;;;24.75;12.48;;;;;;;;;;5068077;28;20075;-65
2021/12/27 02:04:12;;;;;;;24.90;12.32;;;;;;;;;;5070523;28;20029;-64
2021/12/27 02:06:38;;;;;;;26.95;12.88;;;;;;;;;;5067371;28;20041;-64
2021/12/27 02:09:06;;;;;;;24.95;12.75;;;;;;;;;;5070475;28;20044;-65
2021/12/27 02:11:34;;;;;;;25.42;12.93;;;;;;;;;;5070111;28;20074;-65
2021/12/27 02:14:02;;;;;;;24.02;12.95;;;;;;;;;;5067656;28;20098;-64
2021/12/27 02:16:27;;;;;;;24.38;12.55;;;;;;;;;;5066354;28;20051;-65
2021/12/27 02:18:53;;;;;;;24.65;12.93;;;;;;;;;;5069969;28;20450;-65
2021/12/27 02:21:20;;;;;;;24.88;12.68;;;;;;;;;;5068907;28;20040;-64
2021/12/27 02:23:45;;;;;;;23.67;13.30;;;;;;;;;;5069538;28;20043;-64
2021/12/27 02:26:11;;;;;;;22.30;12.85;;;;;;;;;;5069912;28;20032;-64
2021/12/27 02:28:37;;;;;;;24.10;13.50;;;;;;;;;;5065899;28;20029;-64
2021/12/27 02:31:04;;;;;;;27.40;13.35;;;;;;;;;;5067632;28;20429;-64
2021/12/27 02:33:29;;;;;;;25.70;12.38;;;;;;;;;;5068892;28;20463;-64
2021/12/27 02:35:57;;;;;;;23.60;12.65;;;;;;;;;;5068882;28;20127;-64
2021/12/27 02:38:25;;;;;;;25.02;14.13;;;;;;;;;;5069564;28;20086;-66
2021/12/27 02:40:52;;;;;;;26.42;12.80;;;;;;;;;;5071387;28;20059;-65
2021/12/27 02:43:21;;;;;;;23.08;12.13;;;;;;;;;;5064407;28;20028;-64
2021/12/27 02:45:52;;;;;;;21.55;11.77;;;;;;;;;;5070552;28;20028;-63
2021/12/27 02:48:21;;;;;;;20.63;11.43;;;;;;;;;;5065019;28;20055;-63
2021/12/27 02:50:48;;;;;;;22.88;11.75;;;;;;;;;;5068533;28;20033;-65
2021/12/27 02:53:14;;;;;;;20.98;11.95;;;;;;;;;;5071335;28;20104;-64
2021/12/27 02:55:40;;;;;;;20.50;11.48;;;;;;;;;;5064731;28;20233;-64
2021/12/27 02:58:06;;;;;;;21.55;11.40;;;;;;;;;;5055911;28;20161;-64
2021/12/27 03:00:36;;;;;;;21.35;11.40;;;;;;;;;;5068984;28;20033;-63
2021/12/27 03:03:02;;;;;;;21.37;11.60;;;;;;;;;;5072426;28;20150;-65
2021/12/27 03:05:29;;;;;;;22.85;12.02;;;;;;;;;;5070245;28;20374;-65
2021/12/27 03:07:55;;;;;;;21.88;11.95;;;;;;;;;;5073057;28;20032;-65
2021/12/27 03:10:39;;;;;;;25.83;13.00;;;;;;;;;;5072891;28;20044;-65
2021/12/27 03:13:04;;;;;;;20.13;10.90;;;;;;;;;;5071947;28;20091;-64
2021/12/27 03:15:30;;;;;;;22.02;11.13;;;;;;;;;;5072612;28;20051;-65
2021/12/27 03:17:55;;;;;;;17.83;10.57;;;;;;;;;;5067207;28;20420;-64
2021/12/27 03:20:24;;;;;;;20.00;10.70;;;;;;;;;;5073230;28;20108;-64
2021/12/27 03:22:50;;;;;;;18.13;10.35;;;;;;;;;;5070620;28;20037;-64
2021/12/27 03:25:19;;;;;;;20.83;11.40;;;;;;;;;;5072785;28;20029;-65
2021/12/27 03:27:45;;;;;;;18.92;10.43;;;;;;;;;;5070795;28;20033;-64
2021/12/27 03:30:14;;;;;;;18.70;10.15;;;;;;;;;;5073419;28;20020;-64
2021/12/27 03:32:40;;;;;;;17.98;10.23;;;;;;;;;;5063727;28;20033;-64
2021/12/27 03:35:11;;;;;;;19.60;10.50;;;;;;;;;;5063311;28;20028;-64
2021/12/27 03:37:38;;;;;;;22.30;11.18;;;;;;;;;;5071560;28;20029;-64
2021/12/27 03:40:06;;;;;;;20.50;10.80;;;;;;;;;;5070806;28;20056;-64
2021/12/27 03:42:32;;;;;;;18.98;10.80;;;;;;;;;;5067818;28;20040;-65
2021/12/27 03:44:57;;;;;;;21.10;10.55;;;;;;;;;;5059291;28;20025;-65
2021/12/27 03:47:23;;;;;;;21.17;11.13;;;;;;;;;;5072344;28;20032;-64
2021/12/27 03:49:48;;;;;;;16.77;10.05;;;;;;;;;;5071512;28;20391;-64
2021/12/27 03:52:14;;;;;;;17.60;10.10;;;;;;;;;;5070025;28;20162;-64
2021/12/27 03:54:39;;;;;;;18.23;10.52;;;;;;;;;;5066075;28;20068;-65
2021/12/27 03:57:04;;;;;;;17.00;10.10;;;;;;;;;;5063780;28;20032;-65
2021/12/27 04:02:05;;;;;;;18.20;9.85;;;;;;;;;;5070463;28;20190;-65
2021/12/27 04:04:33;;;;;;;17.90;9.18;;;;;;;;;;5069812;28;20107;-67
2021/12/27 04:06:59;;;;;;;17.35;10.45;;;;;;;;;;5072333;28;20462;-65
2021/12/27 04:09:24;;;;;;;18.58;10.20;;;;;;;;;;5070794;28;20401;-64
2021/12/27 04:11:50;;;;;;;18.65;10.10;;;;;;;;;;5069053;28;20062;-65
2021/12/27 04:14:15;;;;;;;18.95;9.63;;;;;;;;;;5067036;28;20056;-65
2021/12/27 04:16:41;;;;;;;20.05;10.13;;;;;;;;;;5069046;28;20052;-64
2021/12/27 04:19:06;;;;;;;18.20;9.73;;;;;;;;;;5072695;28;20035;-65
2021/12/27 04:21:31;;;;;;;17.02;9.40;;;;;;;;;;5068812;28;20390;-67
2021/12/27 04:23:57;;;;;;;17.05;9.88;;;;;;;;;;5071642;28;20036;-65
2021/12/27 04:26:23;;;;;;;17.52;9.90;;;;;;;;;;5069115;28;20116;-65
2021/12/27 04:28:49;;;;;;;17.92;10.00;;;;;;;;;;5069804;28;20106;-65
2021/12/27 04:31:14;;;;;;;18.27;9.50;;;;;;;;;;5070818;28;20028;-66
2021/12/27 04:33:41;;;;;;;17.30;9.00;;;;;;;;;;5066800;28;20409;-65
2021/12/27 04:36:06;;;;;;;16.55;9.00;;;;;;;;;;5069385;28;20064;-65
2021/12/27 04:38:32;;;;;;;17.73;9.48;;;;;;;;;;5070458;28;20055;-66
2021/12/27 04:40:58;;;;;;;14.90;8.90;;;;;;;;;;5071217;28;20379;-65
2021/12/27 04:43:24;;;;;;;15.82;8.82;;;;;;;;;;5056121;28;20459;-65
2021/12/27 04:45:50;;;;;;;17.85;8.90;;;;;;;;;;5070231;28;20489;-65
2021/12/27 04:48:17;;;;;;;16.33;8.88;;;;;;;;;;5069553;28;20053;-65
2021/12/27 04:50:43;;;;;;;16.40;9.05;;;;;;;;;;5069887;28;20039;-65
2021/12/27 04:53:08;;;;;;;14.57;8.90;;;;;;;;;;5069458;28;20032;-65
2021/12/27 04:55:34;;;;;;;15.93;9.20;;;;;;;;;;5068349;28;20059;-66
2021/12/27 04:58:00;;;;;;;15.55;9.20;;;;;;;;;;5071324;28;20041;-64
2021/12/27 05:00:27;;;;;;;15.20;8.80;;;;;;;;;;5068743;28;20358;-66
2021/12/27 05:02:52;;;;;;;16.17;8.88;;;;;;;;;;5070822;28;20051;-65
2021/12/27 05:05:18;;;;;;;14.75;8.82;;;;;;;;;;5069462;28;20025;-64
2021/12/27 05:07:44;;;;;;;14.63;8.55;;;;;;;;;;5069971;28;20033;-65
2021/12/27 05:10:10;;;;;;;15.68;9.20;;;;;;;;;;5070924;28;20112;-65
2021/12/27 05:12:35;;;;;;;15.13;8.10;;;;;;;;;;5068088;28;20202;-66
2021/12/27 05:15:03;;;;;;;16.50;9.43;;;;;;;;;;5065585;28;20038;-65
2021/12/27 05:17:29;;;;;;;16.02;8.65;;;;;;;;;;5068078;28;20102;-65
2021/12/27 05:19:54;;;;;;;14.68;8.75;;;;;;;;;;5063484;28;20032;-65
2021/12/27 05:22:20;;;;;;;16.33;8.90;;;;;;;;;;5069673;28;20123;-65
2021/12/27 05:24:45;;;;;;;15.77;8.43;;;;;;;;;;5067748;28;20032;-65
2021/12/27 05:27:11;;;;;;;16.75;9.02;;;;;;;;;;5066828;28;20036;-65
2021/12/27 05:29:38;;;;;;;17.13;9.02;;;;;;;;;;5069198;28;20036;-66
2021/12/27 05:32:04;;;;;;;15.13;8.88;;;;;;;;;;5069474;28;20406;-65
2021/12/27 05:34:29;;;;;;;14.35;8.10;;;;;;;;;;5069382;28;20036;-65
2021/12/27 05:36:55;;;;;;;15.23;8.43;;;;;;;;;;5068583;28;20028;-64
2021/12/27 05:39:22;;;;;;;15.77;8.70;;;;;;;;;;5071429;28;20402;-65
2021/12/27 05:41:50;;;;;;;16.20;8.35;;;;;;;;;;5069766;28;20028;-65
2021/12/27 05:44:16;;;;;;;13.80;8.18;;;;;;;;;;5067807;28;20025;-65
2021/12/27 05:46:42;;;;;;;16.80;8.07;;;;;;;;;;5066438;28;20075;-65
2021/12/27 05:49:08;;;;;;;14.77;8.43;;;;;;;;;;5070396;28;20056;-65
2021/12/27 05:51:33;;;;;;;14.57;8.10;;;;;;;;;;5070525;28;20032;-66
2021/12/27 05:53:59;;;;;;;14.98;8.32;;;;;;;;;;5070531;28;20040;-65
2021/12/27 05:56:25;;;;;;;13.60;7.85;;;;;;;;;;5067379;28;20063;-65
2021/12/27 05:58:51;;;;;;;16.83;8.43;;;;;;;;;;5067827;28;20389;-65
2021/12/27 06:01:16;;;;;;;15.07;8.35;;;;;;;;;;5049342;28;20037;-65
2021/12/27 06:03:42;;;;;;;14.20;8.25;;;;;;;;;;5066678;28;20051;-66
2021/12/27 06:06:07;;;;;;;14.18;7.70;;;;;;;;;;5067215;28;20025;-65
2021/12/27 06:08:33;;;;;;;15.60;7.82;;;;;;;;;;5069636;28;20044;-65
2021/12/27 06:10:59;;;;;;;13.52;7.90;;;;;;;;;;5067490;28;20036;-65
2021/12/27 06:13:24;;;;;;;14.40;8.02;;;;;;;;;;5069542;28;20068;-66
2021/12/27 06:15:50;;;;;;;13.85;8.25;;;;;;;;;;5069845;28;20035;-66
2021/12/27 06:18:15;;;;;;;13.55;8.00;;;;;;;;;;5066019;28;20466;-66
2021/12/27 06:20:41;;;;;;;14.52;7.90;;;;;;;;;;5058814;28;20037;-66
2021/12/27 06:23:06;;;;;;;17.50;8.05;;;;;;;;;;5071440;28;20025;-66
2021/12/27 06:25:32;;;;;;;13.00;7.60;;;;;;;;;;5070649;28;20047;-66
2021/12/27 06:27:58;;;;;;;14.50;7.78;;;;;;;;;;5072589;28;20060;-66
2021/12/27 06:30:23;;;;;;;13.57;8.30;;;;;;;;;;5075274;28;20563;-66
2021/12/27 06:32:49;;;;;;;15.40;8.45;;;;;;;;;;5073535;28;20036;-66
2021/12/27 06:35:16;;;;;;;14.45;8.63;;;;;;;;;;5074786;28;20392;-66
2021/12/27 06:37:45;;;;;;;13.68;7.80;;;;;;;;;;5071539;28;20062;-66
2021/12/27 06:40:12;;;;;;;13.88;7.75;;;;;;;;;;5072026;28;20462;-66
2021/12/27 06:42:38;;;;;;;14.77;8.07;;;;;;;;;;5060337;28;20120;-67
2021/12/27 06:45:04;;;;;;;14.48;8.13;;;;;;;;;;5072866;28;20400;-66
2021/12/27 06:47:30;;;;;;;14.00;7.78;;;;;;;;;;5074712;28;20470;-66
2021/12/27 06:49:55;;;;;;;13.48;7.57;;;;;;;;;;5073617;28;20038;-66
2021/12/27 06:52:21;;;;;;;14.23;7.47;;;;;;;;;;5074499;28;20039;-66
2021/12/27 06:54:46;;;;;;;15.15;8.00;;;;;;;;;;5073319;28;20028;-66
2021/12/27 06:57:12;;;;;;;14.75;7.65;;;;;;;;;;5074329;28;20028;-66
2021/12/27 06:59:37;;;;;;;13.30;7.55;;;;;;;;;;5074325;28;20032;-67
2021/12/27 07:02:04;;;;;;;13.43;8.02;;;;;;;;;;5072349;28;20433;-66
2021/12/27 07:04:31;;;;;;;12.73;7.50;;;;;;;;;;5082233;28;20079;-66
2021/12/27 07:06:57;;;;;;;15.15;8.10;;;;;;;;;;5077642;28;20035;-66
2021/12/27 07:09:22;;;;;;;12.75;7.88;;;;;;;;;;5074217;28;20032;-66
2021/12/27 07:11:48;;;;;;;13.52;8.45;;;;;;;;;;5073339;28;20347;-66
2021/12/27 07:14:13;;;;;;;14.63;7.70;;;;;;;;;;5074278;28;20079;-67
2021/12/27 07:16:39;;;;;;;13.63;7.90;;;;;;;;;;5073204;28;20063;-67
2021/12/27 07:19:04;;;;;;;13.02;7.63;;;;;;;;;;5071475;28;20404;-67
2021/12/27 07:21:29;;;;;;;12.60;7.40;;;;;;;;;;5082528;28;20047;-66
2021/12/27 07:23:55;;;;;;;12.68;7.30;;;;;;;;;;5082073;28;20033;-67
2021/12/27 07:26:20;;;;;;;13.45;7.20;;;;;;;;;;5073619;28;20041;-66
2021/12/27 07:28:46;;;;;;;13.90;8.07;;;;;;;;;;5054456;28;20127;-67
2021/12/27 07:31:11;;;;;;;13.13;7.65;;;;;;;;;;5073258;28;20028;-67
2021/12/27 07:33:37;;;;;;;14.80;7.90;;;;;;;;;;5073640;28;20470;-65
2021/12/27 07:36:06;;;;;;;15.07;8.07;;;;;;;;;;5072777;28;20052;-64
2021/12/27 07:38:31;;;;;;;17.85;8.68;;;;;;;;;;5072509;28;20077;-65
2021/12/27 07:40:57;;;;;;;12.68;7.82;;;;;;;;;;5072705;28;20032;-65
2021/12/27 07:43:23;;;;;;;13.10;7.78;;;;;;;;;;5073591;28;20035;-65
2021/12/27 07:45:48;;;;;;;13.32;7.75;;;;;;;;;;5068579;28;20037;-65
2021/12/27 07:48:13;;;;;;;13.35;7.88;;;;;;;;;;5062148;28;20036;-68
2021/12/27 07:50:39;;;;;;;13.05;7.40;;;;;;;;;;5073336;28;20106;-65
2021/12/27 07:53:05;;;;;;;12.57;7.72;;;;;;;;;;5072252;28;20466;-65
2021/12/27 07:55:32;;;;;;;12.13;7.07;;;;;;;;;;5073889;28;20082;-65
2021/12/27 07:57:58;;;;;;;12.80;7.50;;;;;;;;;;5068071;28;20036;-66
2021/12/27 08:00:24;;;;;;;13.00;7.30;;;;;;;;;;5067432;28;20025;-65
2021/12/27 08:02:49;;;;;;;12.13;7.50;;;;;;;;;;5070475;28;20390;-64
2021/12/27 08:05:16;;;;;;;12.77;7.60;;;;;;;;;;5053369;28;20082;-65
2021/12/27 08:07:42;;;;;;;13.15;7.40;;;;;;;;;;5071772;28;20036;-68
2021/12/27 08:10:08;;;;;;;12.25;6.93;;;;;;;;;;5070660;28;20036;-65
2021/12/27 08:12:34;;;;;;;12.60;7.72;;;;;;;;;;5073692;28;20120;-65
2021/12/27 08:14:59;;;;;;;13.60;7.38;;;;;;;;;;5071461;28;20111;-66
2021/12/27 08:17:25;;;;;;;13.57;7.05;;;;;;;;;;5072502;28;20038;-65
2021/12/27 08:19:50;;;;;;;12.38;7.28;;;;;;;;;;5067066;28;20032;-66
2021/12/27 08:22:16;;;;;;;12.63;7.60;;;;;;;;;;5072057;28;20111;-65
2021/12/27 08:24:42;;;;;;;13.07;7.35;;;;;;;;;;5068473;28;20020;-69
2021/12/27 08:27:08;;;;;;;12.18;7.40;;;;;;;;;;5051481;28;20086;-64
2021/12/27 08:29:33;;;;;;;13.93;7.60;;;;;;;;;;5064811;28;20043;-64
2021/12/27 08:31:59;;;;;;;11.02;7.10;;;;;;;;;;5066387;28;20516;-63
2021/12/27 08:34:25;;;;;;;12.10;6.90;;;;;;;;;;5071768;28;20032;-65
2021/12/27 08:36:51;;;;;;;12.15;7.00;;;;;;;;;;5070004;28;20070;-65
2021/12/27 08:39:17;;;;;;;12.55;7.10;;;;;;;;;;5072046;28;20140;-66
2021/12/27 08:41:42;;;;;;;15.38;7.40;;;;;;;;;;5071172;28;20107;-67
2021/12/27 08:44:08;;;;;;;12.73;7.30;;;;;;;;;;5071609;28;20474;-64
2021/12/27 08:46:34;;;;;;;12.02;7.13;;;;;;;;;;5070877;28;20039;-65
2021/12/27 08:49:00;;;;;;;11.23;7.13;;;;;;;;;;5071505;28;20025;-65
2021/12/27 08:51:26;;;;;;;14.90;7.47;;;;;;;;;;5071514;28;20036;-64
2021/12/27 08:53:52;;;;;;;13.18;7.10;;;;;;;;;;5071067;28;20051;-66
2021/12/27 08:56:19;;;;;;;12.77;7.32;;;;;;;;;;5071939;28;20032;-66
2021/12/27 08:58:45;;;;;;;12.75;7.22;;;;;;;;;;5072013;28;20119;-69
2021/12/27 09:01:10;;;;;;;13.23;7.38;;;;;;;;;;5071461;28;20085;-65
2021/12/27 09:03:36;;;;;;;13.15;7.55;;;;;;;;;;5071758;28;20028;-64
2021/12/27 09:06:03;;;;;;;12.18;6.80;;;;;;;;;;5070768;28;20060;-65
2021/12/27 09:08:29;;;;;;;11.77;7.15;;;;;;;;;;5071715;28;20082;-65
2021/12/27 09:10:57;;;;;;;12.75;7.43;;;;;;;;;;5069398;28;20474;-64
2021/12/27 09:13:26;;;;;;;14.30;7.88;;;;;;;;;;5070482;28;20127;-64
2021/12/27 09:15:51;;;;;;;12.68;8.18;;;;;;;;;;5070925;28;20470;-64
2021/12/27 09:18:17;;;;;;;13.05;7.60;;;;;;;;;;5067805;28;20040;-65
2021/12/27 09:20:42;;;;;;;12.55;7.40;;;;;;;;;;5071321;28;20035;-64
2021/12/27 09:23:08;;;;;;;12.93;8.02;;;;;;;;;;5069977;28;20135;-64
2021/12/27 09:25:33;;;;;;;13.27;8.07;;;;;;;;;;5066232;28;20063;-64
2021/12/27 09:28:00;;;;;;;13.07;8.20;;;;;;;;;;5069016;28;20036;-64
2021/12/27 09:30:26;;;;;;;13.23;8.07;;;;;;;;;;5070857;28;20048;-64
2021/12/27 09:32:53;;;;;;;15.00;8.20;;;;;;;;;;5070586;28;20032;-64
2021/12/27 09:35:18;;;;;;;17.23;9.07;;;;;;;;;;5071130;28;20115;-63
2021/12/27 09:37:44;;;;;;;19.23;9.77;;;;;;;;;;5068663;28;20660;-64
2021/12/27 09:40:10;;;;;;;15.13;9.32;;;;;;;;;;5070372;28;20504;-63
2021/12/27 09:42:36;;;;;;;16.55;9.85;;;;;;;;;;5070989;28;20114;-64
2021/12/27 09:45:05;;;;;;;18.40;9.55;;;;;;;;;;5070254;28;20032;-64
2021/12/27 09:47:32;;;;;;;14.18;8.25;;;;;;;;;;5071595;28;20024;-63
2021/12/27 09:49:58;;;;;;;18.17;9.35;;;;;;;;;;5071022;28;20098;-63
2021/12/27 09:52:23;;;;;;;13.68;8.50;;;;;;;;;;5069407;28;20032;-64
2021/12/27 09:54:49;;;;;;;14.35;8.02;;;;;;;;;;5065873;28;20041;-67
2021/12/27 09:57:15;;;;;;;13.98;8.10;;;;;;;;;;5070527;28;20469;-63
2021/12/27 09:59:40;;;;;;;12.10;7.60;;;;;;;;;;5059840;28;20052;-64
2021/12/27 10:02:06;;;;;;;12.52;8.23;;;;;;;;;;5071504;28;20054;-64
2021/12/27 10:04:32;;;;;;;11.10;7.60;;;;;;;;;;5075503;28;20029;-63
2021/12/27 10:06:58;;;;;;;12.93;6.82;;;;;;;;;;5074079;28;20035;-63
2021/12/27 10:09:23;;;;;;;10.93;6.63;;;;;;;;;;5074709;28;20041;-63
2021/12/27 10:11:49;;;;;;;10.02;6.35;;;;;;;;;;5073787;28;20515;-67
2021/12/27 10:14:20;;;;;;;10.80;6.35;;;;;;;;;;5074614;28;20048;-63
2021/12/27 10:16:50;;;;;;;8.52;5.38;;;;;;;;;;5075563;28;20041;-63
2021/12/27 10:19:17;;;;;;;10.25;5.43;;;;;;;;;;5073369;28;20039;-63
2021/12/27 10:21:44;;;;;;;10.00;5.10;;;;;;;;;;5074743;28;20033;-62
2021/12/27 10:24:28;;;;;;;7.43;4.63;;;;;;;;;;5071994;28;20111;-65
2021/12/27 10:27:00;;;;;;;7.40;4.35;;;;;;;;;;5073983;28;20108;-63
2021/12/27 10:29:30;;;;;;;10.73;4.63;;;;;;;;;;5073652;28;20032;-63
2021/12/27 10:32:04;;;;;;;6.72;4.20;;;;;;;;;;5074110;28;20036;-63
2021/12/27 10:34:50;;;;;;;7.03;4.00;;;;;;;;;;5073971;28;20028;-63
2021/12/27 10:37:19;;;;;;;6.45;3.85;;;;;;;;;;5074544;28;20064;-63
2021/12/27 10:39:57;;;;;;;6.53;4.03;;;;;;;;;;5074644;28;20042;-63
2021/12/27 10:42:30;;;;;;;7.28;4.15;;;;;;;;;;5075052;28;20025;-62
2021/12/27 10:44:58;;;;;;;5.82;3.67;;;;;;;;;;5066843;28;20033;-64
2021/12/27 10:47:29;;;;;;;5.75;3.70;;;;;;;;;;5074728;28;20028;-63
2021/12/27 10:50:02;;;;;;;5.70;3.30;;;;;;;;;;5072413;28;20046;-67
2021/12/27 10:52:43;;;;;;;5.53;3.20;;;;;;;;;;5054267;28;20029;-63
2021/12/27 10:55:08;;;;;;;4.70;3.07;;;;;;;;;;5057015;28;20033;-62
2021/12/27 10:57:34;;;;;;;6.10;3.33;;;;;;;;;;5074370;28;20108;-63
2021/12/27 11:00:41;;;;;;;4.93;3.20;;;;;;;;;;5070727;28;20089;-63
2021/12/27 11:03:06;;;;;;;5.78;3.30;;;;;;;;;;5073290;28;20080;-63
2021/12/27 11:05:35;;;;;;;5.53;3.15;;;;;;;;;;5073549;28;20036;-63
2021/12/27 11:08:05;;;;;;;5.70;3.08;;;;;;;;;;5072326;28;20160;-63
2021/12/27 11:10:35;;;;;;;5.13;3.40;;;;;;;;;;5071720;28;20032;-63
2021/12/27 11:13:01;;;;;;;5.00;2.87;;;;;;;;;;5051733;28;20433;-62
2021/12/27 11:15:32;;;;;;;5.60;3.08;;;;;;;;;;5069999;28;20036;-62
2021/12/27 11:17:58;;;;;;;4.90;3.10;;;;;;;;;;5073511;28;20028;-64
2021/12/27 11:20:24;;;;;;;5.18;3.13;;;;;;;;;;5073789;28;20051;-62
2021/12/27 11:22:53;;;;;;;6.13;3.10;;;;;;;;;;5073953;28;20044;-63
2021/12/27 11:25:39;;;;;;;5.07;2.83;;;;;;;;;;5072353;28;20039;-63
2021/12/27 11:28:23;;;;;;;5.57;3.10;;;;;;;;;;5058832;28;20039;-63
2021/12/27 11:30:49;;;;;;;6.53;3.40;;;;;;;;;;5072154;28;20039;-63
2021/12/27 11:33:15;;;;;;;5.78;3.45;;;;;;;;;;5070276;28;20036;-66
2021/12/27 11:36:02;;;;;;;7.40;3.50;;;;;;;;;;5051576;28;20055;-63
2021/12/27 11:38:30;;;;;;;5.57;3.25;;;;;;;;;;5059643;28;20049;-63
2021/12/27 11:40:56;;;;;;;5.13;3.22;;;;;;;;;;5064292;28;20036;-67
2021/12/27 11:43:22;;;;;;;5.15;3.10;;;;;;;;;;5072389;28;20032;-62
2021/12/27 11:45:55;;;;;;;5.40;3.00;;;;;;;;;;5071542;28;20024;-63
2021/12/27 11:48:26;;;;;;;5.43;3.28;;;;;;;;;;5067720;28;20047;-62
2021/12/27 11:50:58;;;;;;;;;;;;;;;;;;5073943;28;20424;-63
2021/12/27 11:53:50;;;;;;;5.05;3.20;;;;;;;;;;5078409;28;19934;-63
2021/12/27 11:56:43;;;;;;;5.47;3.20;;;;;;;;;;5070275;28;20104;-62
2021/12/27 11:59:36;;;;;;;5.40;3.13;;;;;;;;;;5068856;28;20482;-63
2021/12/27 12:02:13;;;;;;;5.28;3.20;;;;;;;;;;5052575;28;20037;-64
2021/12/27 12:04:40;;;;;;;4.88;3.17;;;;;;;;;;5057952;28;20064;-63
2021/12/27 12:07:07;;;;;;;5.82;3.38;;;;;;;;;;5068720;28;20029;-63
2021/12/27 12:09:45;;;;;;;5.13;3.20;;;;;;;;;;5071451;28;20036;-63
2021/12/27 12:12:13;;;;;;;6.78;2.88;;;;;;;;;;5071574;28;20036;-63
2021/12/27 12:14:39;;;;;;;7.18;3.00;;;;;;;;;;5070589;28;20045;-62
2021/12/27 12:17:15;;;;;;;5.65;3.15;;;;;;;;;;5072204;28;20035;-62
2021/12/27 12:19:47;;;;;;;5.78;2.78;;;;;;;;;;5072871;28;20039;-62
2021/12/27 12:22:38;;;;;;;4.45;2.72;;;;;;;;;;5070512;28;20047;-62
2021/12/27 12:25:20;;;;;;;4.90;2.92;;;;;;;;;;5062760;28;20032;-62
2021/12/27 12:27:57;;;;;;;4.28;2.75;;;;;;;;;;5071211;28;20041;-62
2021/12/27 12:30:27;;;;;;;4.00;2.40;;;;;;;;;;5072321;28;20051;-62
2021/12/27 12:33:10;;;;;;;3.75;2.40;;;;;;;;;;5072670;28;20052;-62
2021/12/27 12:35:51;;;;;;;4.85;2.45;;;;;;;;;;5072527;28;20056;-62
2021/12/27 12:38:34;;;;;;;3.55;2.30;;;;;;;;;;5063187;28;20060;-62
2021/12/27 12:41:08;;;;;;;4.70;2.30;;;;;;;;;;5071506;28;20454;-63
2021/12/27 12:43:40;;;;;;;3.22;2.33;;;;;;;;;;5071617;28;20036;-62
2021/12/27 12:46:12;;;;;;;3.67;2.28;;;;;;;;;;5071755;28;20416;-63
2021/12/27 12:48:37;;;;;;;3.05;2.20;;;;;;;;;;5072407;28;20497;-63
2021/12/27 12:51:03;;;;;;;3.55;2.30;;;;;;;;;;5071121;28;20067;-62
2021/12/27 12:53:30;;;;;;;3.75;2.20;;;;;;;;;;5070423;28;20429;-63
2021/12/27 12:56:01;;;;;;;3.38;2.20;;;;;;;;;;5072060;28;20042;-63
2021/12/27 12:58:34;;;;;;;2.83;2.30;;;;;;;;;;5071838;28;20032;-61
2021/12/27 13:01:09;;;;;;;3.05;2.20;;;;;;;;;;5070333;28;20150;-65
2021/12/27 13:03:35;;;;;;;4.60;2.40;;;;;;;;;;5072084;28;20032;-62
2021/12/27 13:06:03;;;;;;;3.50;2.20;;;;;;;;;;5071201;28;20036;-66
2021/12/27 13:08:30;;;;;;;3.42;2.33;;;;;;;;;;5058715;28;20104;-63
2021/12/27 13:11:02;;;;;;;5.28;2.20;;;;;;;;;;5059101;28;20366;-62
2021/12/27 13:13:28;;;;;;;4.10;2.30;;;;;;;;;;5068351;28;20131;-62
2021/12/27 13:16:00;;;;;;;4.35;2.47;;;;;;;;;;5071927;28;20032;-62
2021/12/27 13:18:27;;;;;;;3.40;2.30;;;;;;;;;;5071885;28;20021;-63
2021/12/27 13:21:04;;;;;;;3.50;2.30;;;;;;;;;;5071808;28;20032;-62
2021/12/27 13:23:32;;;;;;;3.40;2.22;;;;;;;;;;5063473;28;20028;-63
2021/12/27 13:26:01;;;;;;;3.80;2.50;;;;;;;;;;5070938;28;20482;-63
2021/12/27 13:28:35;;;;;;;4.93;2.33;;;;;;;;;;5069674;28;20035;-63
2021/12/27 13:31:12;;;;;;;3.53;2.40;;;;;;;;;;5070828;28;20032;-63
2021/12/27 13:33:51;;;;;;;4.05;2.60;;;;;;;;;;5071755;28;20032;-63
2021/12/27 13:36:23;;;;;;;4.22;2.47;;;;;;;;;;5067274;28;20037;-62
2021/12/27 13:39:09;;;;;;;4.82;3.00;;;;;;;;;;5066335;28;20041;-63
2021/12/27 13:41:38;;;;;;;4.28;3.00;;;;;;;;;;5066352;28;20032;-62
2021/12/27 13:44:06;;;;;;;4.15;2.53;;;;;;;;;;5070315;28;20097;-62
2021/12/27 13:46:35;;;;;;;3.88;2.70;;;;;;;;;;5071254;28;20028;-63
2021/12/27 13:49:03;;;;;;;3.38;2.28;;;;;;;;;;5071191;28;20035;-63
2021/12/27 13:51:32;;;;;;;4.88;2.53;;;;;;;;;;5071450;28;20036;-62
2021/12/27 13:54:05;;;;;;;3.40;2.30;;;;;;;;;;5068239;28;20039;-62
2021/12/27 13:56:33;;;;;;;4.53;2.70;;;;;;;;;;5070054;28;20024;-62
2021/12/27 13:59:23;;;;;;;3.85;2.60;;;;;;;;;;5067086;28;20056;-62
2021/12/27 14:02:00;;;;;;;4.80;2.45;;;;;;;;;;5069524;28;20045;-63
2021/12/27 14:04:29;;;;;;;3.53;2.38;;;;;;;;;;5070412;28;20044;-62
2021/12/27 14:06:55;;;;;;;3.00;2.20;;;;;;;;;;5069513;28;20032;-63
2021/12/27 14:09:27;;;;;;;3.20;2.15;;;;;;;;;;5071007;28;20043;-63
2021/12/27 14:12:00;;;;;;;2.67;2.13;;;;;;;;;;5069002;28;20032;-63
2021/12/27 14:14:36;;;;;;;3.92;2.33;;;;;;;;;;5049491;28;20053;-63
2021/12/27 14:17:09;;;;;;;4.13;2.28;;;;;;;;;;5051986;28;20171;-63
2021/12/27 14:19:35;;;;;;;3.05;2.22;;;;;;;;;;5070485;28;20489;-63
2021/12/27 14:22:16;;;;;;;3.45;2.42;;;;;;;;;;5069081;28;20031;-65
2021/12/27 14:24:43;;;;;;;7.10;3.00;;;;;;;;;;5069729;28;21830;-63
2021/12/27 14:27:28;;;;;;;4.35;2.72;;;;;;;;;;5062618;28;20021;-64
2021/12/27 14:30:15;;;;;;;4.13;2.80;;;;;;;;;;5069344;28;20029;-64
2021/12/27 14:32:45;;;;;;;3.83;2.53;;;;;;;;;;5066940;28;20044;-63
2021/12/27 14:35:20;;;;;;;4.13;2.78;;;;;;;;;;5056582;28;20052;-64
2021/12/27 14:37:45;;;;;;;4.35;2.63;;;;;;;;;;5064233;28;20105;-64
2021/12/27 14:40:11;;;;;;;3.85;2.65;;;;;;;;;;5070362;28;20107;-65
2021/12/27 14:42:36;;;;;;;4.97;2.63;;;;;;;;;;5069810;28;20508;-64
2021/12/27 14:45:05;;;;;;;4.32;2.83;;;;;;;;;;5072481;28;20040;-63